Tiempo atmosférico en la estación meteorológica de Bustillo del Páramo, León (850 m.)

Fecha
DESCASC
Temp. máxima en grados centígrados (hora)
DESCASC
Temp. mínima en grados centígrados (hora)
DESCASC
Temp. media en grados centígrados
DESCASC
Racha de viento máxima en m/sg (hora)
DESCASC
Velocidad máxima media en intervalos de 10 minutos(hora)
DESCASC
Precipitaciones diarias en mm
DESCASC
Precipitaciones de 00:00 a 06:00 en mm
DESCASC
Precipitaciones de 06:00 a 12:00 en mm
DESCASC
Precipitaciones de 12:00 a 18:00 en mm
DESCASC
Precipitaciones de 18:00 a 24:00 en mm
DESCASC
21-09-2017 23.3 (17:20) 7.5 (07:30) 15.4 7.5 (19:10) 5 (19:20) 0 0 0 0 0
20-09-2017 25.2 (18:00) 5.1 (08:10) 15.2 6.94 (15:40) 3.61 (15:00) 0 0 0 0 0
19-09-2017 22.2 (18:10) 5 (08:00) 13.6 6.94 (13:20) 3.06 (02:00) 0 0 0 0 0
18-09-2017 19.4 (16:00) 8.6 (08:10) 14 11.94 (15:30) 8.06 (15:30) 4 4 0 0 0
17-09-2017 19.3 (17:10) 2.3 (00:00) 10.8 9.44 (20:00) 6.39 (20:00) 0 0 0 0 0
16-09-2017 18 (17:40) 2.3 (00:00) 10.1 8.89 (18:00) 5.83 (20:10) 0 0 0 0 0
15-09-2017 17.1 (16:10) 3.3 (00:00) 10.2 11.11 (18:50) 6.39 (18:50) 0 0 0 0 0
14-09-2017 22.3 (15:50) 10.8 (00:00) 16.5 11.67 (03:10) 8.06 (03:10) 0 0 0 0 0
13-09-2017 28 (17:30) 9.2 (00:00) 18.6 8.89 (00:40) 5.83 (00:50) 0 0 0 0 0
12-09-2017 22.2 (17:40) 11.1 (00:00) 16.7 12.5 (16:00) 8.61 (14:10) 0 0 0 0 0
11-09-2017 23.1 (16:50) 12.5 (00:00) 17.8 13.61 (14:10) 10 (19:40) 0 0 0 0 0
10-09-2017 22.7 (16:50) 6.7 (00:00) 14.7 11.11 (19:10) 8.06 (19:10) 0 0 0 0 0
09-09-2017 19.4 (16:00) 10.7 (00:00) 15 15.83 (16:40) 10.83 (01:20) 0 0 0 0 0
08-09-2017 28.1 (17:10) 6.1 (00:00) 17.1 13.89 (23:50) 9.72 (23:50) 0 0 0 0 0
07-09-2017 26.3 (17:40) 4.8 (00:00) 15.5 5.56 (17:20) 3.61 (17:20) 0 0 0 0 0
06-09-2017 27.1 (18:10) 10.3 (00:00) 18.7 6.67 (18:00) 3.89 (01:20) 0 0 0 0 0
05-09-2017 30.7 (16:50) 11.9 (00:00) 21.3 8.61 (17:00) 5.28 (17:10) 0 0 0 0 0
04-09-2017 26.5 (17:20) 12.3 (00:00) 19.4 8.61 (10:10) 6.11 (10:10) 0 0 0 0 0
03-09-2017 28.2 (17:30) 12 (00:00) 20.1 13.89 (19:30) 9.44 (19:30) 0 0 0 0 0
02-09-2017 22.9 (18:20) 4.3 (00:00) 13.6 5.56 (17:30) 3.06 (06:20) 0 0 0 0 0
01-09-2017 22.1 (16:50) 7.3 (00:00) 14.7 10 (19:10) 6.67 (20:00) 0 0 0 0 0
31-08-2017 22 (18:10) 8.1 (00:00) 15.1 5.56 (15:20) 3.33 (21:30) 0 0 0 0 0
30-08-2017 22.9 (17:20) 12.3 (00:00) 17.6 10.56 (17:50) 7.5 (17:50) 2.4 0 0 0.2 2.2
29-08-2017 24.3 (18:40) 12.7 (00:00) 18.5 8.61 (15:20) 4.44 (15:20) 0 0 0 0 0
28-08-2017 25.5 (14:40) 13.6 (00:00) 19.6 11.11 (17:20) 7.5 (17:20) 4.8 0 2.6 2.2 0
27-08-2017 23.4 (16:10) 13.8 (00:00) 18.6 15.28 (18:20) 8.33 (18:20) 0 0 0 0 0
26-08-2017 27.5 (17:30) 10.8 (00:00) 19.2 10.28 (18:10) 5.56 (18:10) 3.8 0 0 0 3.8
25-08-2017 28.1 (17:50) 10.3 (00:00) 19.2 6.67 (15:20) 3.33 (00:20) 0 0 0 0 0
24-08-2017 30.1 (17:30) 12.6 (00:00) 21.4 8.33 (19:20) 5.28 (19:00) 0 0 0 0 0

Gráficas

Temp. máximas Temp. mínimas Temp. medias Precipitaciones Rachas de viento máximas Velocidades máximas media en intervalos de 10 minutos

Datos horarios

Fecha y hora oficial Temperatura (ºC) Velocidad del viento (km/h) Dirección del viento Racha (km/h) Dirección de racha Precipitación (mm) Presión (hPa) Tendencia (hPa) Humedad (%)
2017-09-22 23:00:00 15 15 Este 19 Este 0 -- -- 72
2017-09-22 22:00:00 15.7 11 Este 13 Este 0 -- -- 61
2017-09-22 21:00:00 17.1 10 Este 13 Este 0 -- -- 55
2017-09-22 20:00:00 20.8 8 Este 21 Este 0 -- -- 44
2017-09-22 19:00:00 22.8 14 Este 21 Sudeste 0 -- -- 40
2017-09-22 18:00:00 24.1 10 Sur 25 Sur 0 -- -- 36
2017-09-22 17:00:00 24 9 Sur 17 Este 0 -- -- 36
2017-09-22 16:00:00 22.6 9 Este 26 Este 0 -- -- 42
2017-09-22 15:00:00 22.3 7 Sudeste 22 Sur 0 -- -- 44
2017-09-22 14:00:00 21 10 Sudeste 22 Este 0 -- -- 47
2017-09-22 13:00:00 19.4 11 Este 22 Este 0 -- -- 51
2017-09-22 12:00:00 18.4 9 Este 20 Este 0 -- -- 53
2017-09-22 11:00:00 15.8 6 Noroeste 11 Noroeste 0 -- -- 65
2017-09-22 10:00:00 11.9 6 Noroeste 12 Noroeste 0 -- -- 82
2017-09-22 09:00:00 8 4 Norte 12 Norte 0 -- -- 92
2017-09-22 08:00:00 7.2 5 Norte 10 Noroeste 0 -- -- 91
2017-09-22 07:00:00 7.6 8 Norte 12 Norte 0 -- -- 91
2017-09-22 06:00:00 8 8 Norte 9 Noroeste 0 -- -- 91
2017-09-22 05:00:00 8.1 7 Norte 10 Noroeste 0 -- -- 88
2017-09-22 04:00:00 9.5 4 Nordeste 8 Norte 0 -- -- 83
2017-09-22 03:00:00 9.6 5 Nordeste 7 Nordeste 0 -- -- 85
2017-09-22 02:00:00 10.2 4 Nordeste 6 Nordeste 0 -- -- 85
2017-09-22 01:00:00 11 4 Norte 9 Noroeste 0 -- -- 84
2017-09-22 00:00:00 11.9 8 Norte 12 Nordeste 0 -- -- 79
2017-09-21 23:00:00 13.2 9 Norte 11 Norte 0 -- -- 76
2017-09-21 22:00:00 14.6 5 Norte 12 Norte 0 -- -- 72
2017-09-21 21:00:00 16.5 9 Norte 18 Norte 0 -- -- 66
2017-09-21 20:00:00 18.5 14 Norte 27 Norte 0 -- -- 57
2017-09-21 19:00:00 21.6 13 Noroeste 20 Noroeste 0 -- -- 47
2017-09-21 18:00:00 22.6 8 Oeste 21 Oeste 0 -- -- 36
2017-09-21 17:00:00 22.9 12 Oeste 19 Oeste 0 -- -- 34
2017-09-21 16:00:00 23.1 6 Noroeste 21 Oeste 0 -- -- 35
2017-09-21 15:00:00 22.5 5 Noroeste 19 Noroeste 0 -- -- 37
2017-09-21 14:00:00 21.8 12 Noroeste 25 Noroeste 0 -- -- 40
2017-09-21 13:00:00 20.7 5 Noroeste 16 Noroeste 0 -- -- 46
2017-09-21 12:00:00 18.1 9 Noroeste 14 Noroeste 0 -- -- 51
2017-09-21 11:00:00 16.4 5 Norte 13 Noroeste 0 -- -- 62
2017-09-21 10:00:00 13.2 8 Norte 14 Noroeste 0 -- -- 65
2017-09-21 09:00:00 8.5 10 Noroeste 13 Noroeste 0 -- -- 84
2017-09-21 08:00:00 7.6 9 Norte 14 Norte 0 -- -- 84
2017-09-21 07:00:00 7.8 7 Norte 11 Noroeste 0 -- -- 84
2017-09-21 06:00:00 8.2 9 Norte 12 Norte 0 -- -- 82
2017-09-21 05:00:00 8.5 8 Noroeste 13 Norte 0 -- -- 78
2017-09-21 04:00:00 10.4 10 Norte 16 Noroeste 0 -- -- 71
2017-09-21 03:00:00 10.9 12 Noroeste 17 Norte 0 -- -- 69
2017-09-21 02:00:00 10.3 9 Norte 15 Norte 0 -- -- 72
2017-09-21 01:00:00 11.2 6 Norte 14 Norte 0 -- -- 69
2017-09-21 00:00:00 11.9 9 Norte 13 Norte 0 -- -- 66
2017-09-20 23:00:00 14.1 6 Nordeste 13 Nordeste 0 -- -- 57
2017-09-20 22:00:00 15.6 7 Nordeste 10 Nordeste 0 -- -- 51
2017-09-20 21:00:00 18.3 8 Este 10 Este 0 -- -- 45
2017-09-20 20:00:00 22.7 8 Este 21 Este 0 -- -- 33
2017-09-20 19:00:00 24.4 10 Sudeste 17 Sudeste 0 -- -- 29
2017-09-20 18:00:00 25.2 6 Sur 15 Sudoeste 0 -- -- 28
2017-09-20 17:00:00 24.7 6 Sudoeste 17 Sudoeste 0 -- -- 29
2017-09-20 16:00:00 23.7 10 Sudoeste 25 Sudoeste 0 -- -- 32
2017-09-20 15:00:00 22.6 13 Sudoeste 24 Sur 0 -- -- 33
2017-09-20 14:00:00 21.3 8 Sudeste 17 Sudeste 0 -- -- 34
2017-09-20 13:00:00 19.5 5 Sudeste 16 Este 0 -- -- 39
2017-09-20 12:00:00 17.4 4 Sudeste 9 Este 0 -- -- 47
2017-09-20 11:00:00 15 3 Sudeste 8 Este 0 -- -- 53
2017-09-20 10:00:00 10.4 4 Norte 10 Norte 0 -- -- 78
2017-09-20 09:00:00 6.1 8 Noroeste 12 Noroeste 0 -- -- 91
2017-09-20 08:00:00 5.2 8 Norte 12 Norte 0 -- -- 90
2017-09-20 07:00:00 5.4 7 Noroeste 12 Norte 0 -- -- 90
2017-09-20 06:00:00 5.6 7 Noroeste 10 Norte 0 -- -- 89
2017-09-20 05:00:00 6.1 6 Norte 10 Norte 0 -- -- 88
2017-09-20 04:00:00 7 6 Norte 11 Nordeste 0 -- -- 83
2017-09-20 03:00:00 8.1 6 Nordeste 11 Norte 0 -- -- 80
2017-09-20 02:00:00 8.6 6 Nordeste 11 Norte 0 -- -- 79
2017-09-20 01:00:00 8.9 8 Norte 11 Norte 0 -- -- 80
2017-09-20 00:00:00 9.9 9 Norte 10 Norte 0 -- -- 77
2017-09-19 23:00:00 11.3 9 Norte 10 Norte 0 -- -- 72
2017-09-19 22:00:00 13 3 Norte 4 Norte 0 -- -- 64
2017-09-19 21:00:00 16.2 3 Este 10 Sudeste 0 -- -- 50
2017-09-19 20:00:00 19.7 8 Sudeste 16 Sudeste 0 -- -- 40
2017-09-19 19:00:00 21.7 9 Sudeste 20 Sudeste 0 -- -- 34
2017-09-19 18:00:00 22.1 6 Sudeste 14 Sudeste 0 -- -- 32
2017-09-19 17:00:00 21.6 5 Este 15 Este 0 -- -- 31
2017-09-19 16:00:00 20.7 4 Sur 13 Sudoeste 0 -- -- 34
2017-09-19 15:00:00 19.4 5 Sudeste 14 Sudoeste 0 -- -- 42
2017-09-19 14:00:00 18 8 Sudoeste 25 Sur 0 -- -- 50
2017-09-19 13:00:00 16.3 6 Sudeste 13 Este 0 -- -- 58
2017-09-19 12:00:00 14.6 3 Sudeste 8 Sudeste 0 -- -- 64
2017-09-19 11:00:00 12.5 3 Este 6 Este 0 -- -- 71
2017-09-19 10:00:00 8.5 5 Norte 10 Noroeste 0 -- -- 89
2017-09-19 09:00:00 5.4 4 Noroeste 9 Noroeste 0 -- -- 94
2017-09-19 08:00:00 5 3 Oeste 12 Norte 0 -- -- 92
2017-09-19 07:00:00 5.6 10 Norte 13 Norte 0 -- -- 93
2017-09-19 06:00:00 5.4 8 Noroeste 10 Norte 0 -- -- 93
2017-09-19 05:00:00 6 6 Norte 9 Norte 0 -- -- 92
2017-09-19 04:00:00 7.1 8 Norte 12 Norte 0 -- -- 90
2017-09-19 03:00:00 7.6 8 Norte 15 Norte 0 -- -- 89
2017-09-19 02:00:00 7.9 11 Noroeste 14 Noroeste 0 -- -- 90
2017-09-19 01:00:00 9.2 9 Norte 12 Norte 0 -- -- 88
2017-09-19 00:00:00 10.4 5 Norte 9 Oeste 0 -- -- 86
2017-09-18 23:00:00 11.6 6 Noroeste 13 Noroeste 0 -- -- 82
2017-09-18 22:00:00 13.4 10 Noroeste 17 Noroeste 0 -- -- 79
2017-09-18 21:00:00 14.9 12 Noroeste 20 Noroeste 0 -- -- 72
2017-09-18 20:00:00 16.3 17 Noroeste 32 Noroeste 0 -- -- 65
2017-09-18 19:00:00 18.7 23 Oeste 39 Oeste 0 -- -- 55
2017-09-18 18:00:00 19 24 Oeste 39 Oeste 0 -- -- 52
2017-09-18 17:00:00 19.2 26 Oeste 41 Oeste 0 -- -- 54
2017-09-18 16:00:00 19.4 22 Oeste 43 Oeste 0 -- -- 52
2017-09-18 15:00:00 18.3 28 Oeste 40 Oeste 0 -- -- 57
2017-09-18 14:00:00 17 23 Oeste 35 Oeste 0 -- -- 66
2017-09-18 13:00:00 16.8 20 Noroeste 33 Oeste 0 -- -- 64
2017-09-18 12:00:00 14.4 21 Oeste 30 Oeste 0 -- -- 72
2017-09-18 11:00:00 13.2 14 Oeste 24 Oeste 0 -- -- 79
2017-09-18 10:00:00 11.3 18 Oeste 27 Oeste 0 -- -- 87
2017-09-18 09:00:00 9.3 11 Oeste 20 Oeste 0 -- -- 93
2017-09-18 08:00:00 8.7 7 Oeste 13 Oeste 0 -- -- 93
2017-09-18 07:00:00 9.4 3 Oeste 12 Oeste 0 -- -- 91
2017-09-18 06:00:00 9.7 3 Oeste 7 Sudoeste 0 -- -- 91
2017-09-18 05:00:00 9.8 6 Oeste 19 Noroeste 0 -- -- 90
2017-09-18 04:00:00 9.9 4 Oeste 10 Noroeste 1.8 -- -- 91
2017-09-18 03:00:00 10.3 8 Oeste 22 Oeste 2.2 -- -- 89
2017-09-18 02:00:00 11.8 18 Noroeste 33 Oeste 0 -- -- 71
2017-09-18 01:00:00 11.9 12 Oeste 26 Noroeste 0 -- -- 65
2017-09-18 00:00:00 12.3 15 Noroeste 33 Oeste 0 -- -- 62
2017-09-17 23:00:00 12.1 18 Noroeste 29 Oeste 0 -- -- 62
2017-09-17 22:00:00 12.6 21 Noroeste 34 Oeste 0 -- -- 59
2017-09-17 21:00:00 13.4 13 Noroeste 32 Noroeste 0 -- -- 54
2017-09-17 20:00:00 15.5 23 Noroeste 34 Oeste 0 -- -- 47
2017-09-17 19:00:00 17.6 19 Oeste 28 Oeste 0 -- -- 38
2017-09-17 18:00:00 17.8 19 Oeste 29 Oeste 0 -- -- 37
2017-09-17 17:00:00 19.1 16 Oeste 34 Noroeste 0 -- -- 36
2017-09-17 16:00:00 18.8 13 Oeste 27 Sudoeste 0 -- -- 36
2017-09-17 15:00:00 16.8 12 Oeste 26 Oeste 0 -- -- 41
2017-09-17 14:00:00 15.8 12 Oeste 23 Oeste 0 -- -- 44
2017-09-17 13:00:00 14 12 Oeste 27 Oeste 0 -- -- 50
2017-09-17 12:00:00 13.1 16 Oeste 27 Oeste 0 -- -- 54
2017-09-17 11:00:00 10.9 17 Oeste 24 Oeste 0 -- -- 64
2017-09-17 10:00:00 7.5 2 Sudoeste 6 Este 0 -- -- 81
2017-09-17 09:00:00 4 0 Calma 8 Noroeste 0 -- -- 90
2017-09-17 08:00:00 2.4 5 Norte 8 Norte 0 -- -- 89
2017-09-17 07:00:00 3.1 3 Norte 13 Noroeste 0 -- -- 87
2017-09-17 06:00:00 3.2 9 Oeste 10 Oeste 0 -- -- 87
2017-09-17 05:00:00 3.7 5 Norte 8 Norte 0 -- -- 83
2017-09-17 04:00:00 4.7 5 Norte 9 Norte 0 -- -- 78
2017-09-17 03:00:00 5.7 3 Norte 12 Norte 0 -- -- 76
2017-09-17 02:00:00 6.5 5 Norte 18 Noroeste 0 -- -- 74
2017-09-17 01:00:00 7.2 8 Noroeste 14 Noroeste 0 -- -- 72
2017-09-17 00:00:00 7.1 5 Noroeste 10 Norte 0 -- -- 70
2017-09-16 23:00:00 8.5 6 Noroeste 11 Norte 0 -- -- 66
2017-09-16 22:00:00 9.6 7 Norte 12 Norte 0 -- -- 62
2017-09-16 21:00:00 12.1 8 Norte 29 Oeste 0 -- -- 54
2017-09-16 20:00:00 14.3 19 Noroeste 30 Oeste 0 -- -- 45
2017-09-16 19:00:00 16.8 17 Oeste 27 Oeste 0 -- -- 35
2017-09-16 18:00:00 17.7 15 Oeste 32 Sudoeste 0 -- -- 34
2017-09-16 17:00:00 17.5 18 Oeste 29 Oeste 0 -- -- 35
2017-09-16 16:00:00 16.3 10 Noroeste 21 Noroeste 0 -- -- 38
2017-09-16 15:00:00 16.1 10 Oeste 30 Noroeste 0 -- -- 39
2017-09-16 14:00:00 15.2 13 Noroeste 24 Oeste 0 -- -- 41
2017-09-16 13:00:00 13.9 9 Norte 22 Oeste 0 -- -- 43
2017-09-16 12:00:00 13.3 10 Noroeste 21 Noroeste 0 -- -- 48
2017-09-16 11:00:00 11.2 15 Noroeste 24 Noroeste 0 -- -- 58
2017-09-16 10:00:00 7.6 9 Noroeste 18 Noroeste 0 -- -- 74
2017-09-16 09:00:00 3.3 6 Noroeste 10 Norte 0 -- -- 88
2017-09-16 08:00:00 2.5 8 Noroeste 12 Noroeste 0 -- -- 86
2017-09-16 07:00:00 2.3 8 Noroeste 13 Noroeste 0 -- -- 84
2017-09-16 06:00:00 3.2 9 Noroeste 12 Noroeste 0 -- -- 83
2017-09-16 05:00:00 3.1 7 Noroeste 12 Noroeste 0 -- -- 81
2017-09-16 04:00:00 3.4 4 Norte 6 Norte 0 -- -- 80
2017-09-16 03:00:00 4.1 6 Noroeste 8 Noroeste 0 -- -- 78
2017-09-16 02:00:00 5.3 5 Norte 16 Noroeste 0 -- -- 74
2017-09-16 01:00:00 5.9 9 Noroeste 13 Noroeste 0 -- -- 72
2017-09-16 00:00:00 6.1 5 Noroeste 14 Norte 0 -- -- 71
2017-09-15 23:00:00 7.8 9 Norte 17 Norte 0 -- -- 66
2017-09-15 22:00:00 9.1 12 Norte 24 Norte 0 -- -- 60
2017-09-15 21:00:00 10.6 13 Norte 24 Norte 0 -- -- 53
2017-09-15 20:00:00 12.3 16 Norte 30 Norte 0 -- -- 48
2017-09-15 19:00:00 13.3 19 Norte 40 Norte 0 -- -- 48
2017-09-15 18:00:00 14.9 19 Norte 35 Norte 0 -- -- 44
2017-09-15 17:00:00 16.6 16 Noroeste 29 Norte 0 -- -- 40
2017-09-15 16:00:00 16.5 13 Noroeste 36 Nordeste 0 -- -- 42
2017-09-15 15:00:00 16.3 17 Norte 29 Norte 0 -- -- 40
2017-09-15 14:00:00 15.4 12 Norte 25 Norte 0 -- -- 41
2017-09-15 13:00:00 14.8 11 Norte 22 Noroeste 0 -- -- 42
2017-09-15 12:00:00 13.7 6 Norte 23 Noroeste 0 -- -- 45
2017-09-15 11:00:00 12.6 9 Norte 21 Norte 0 -- -- 51
2017-09-15 10:00:00 9.6 5 Noroeste 12 Noroeste 0 -- -- 67
2017-09-15 09:00:00 6.5 7 Noroeste 10 Noroeste 0 -- -- 76
2017-09-15 08:00:00 3.9 7 Noroeste 11 Noroeste 0 -- -- 81
2017-09-15 07:00:00 3.4 8 Noroeste 11 Noroeste 0 -- -- 80
2017-09-15 06:00:00 3.9 6 Noroeste 9 Noroeste 0 -- -- 78
2017-09-15 05:00:00 4.5 9 Noroeste 10 Noroeste 0 -- -- 77
2017-09-15 04:00:00 6.1 5 Noroeste 15 Noroeste 0 -- -- 73
2017-09-15 03:00:00 7.4 7 Norte 15 Noroeste 0 -- -- 70
2017-09-15 02:00:00 9.1 8 Norte 15 Norte 0 -- -- 66
2017-09-15 01:00:00 10.6 12 Noroeste 27 Norte 0 -- -- 64
2017-09-15 00:00:00 10.8 9 Norte 21 Norte 0 -- -- 65
2017-09-14 23:00:00 12.6 10 Nordeste 24 Nordeste 0 -- -- 56
2017-09-14 22:00:00 13.6 12 Nordeste 23 Norte 0 -- -- 55
2017-09-14 21:00:00 15.4 16 Norte 25 Norte 0 -- -- 51
2017-09-14 20:00:00 18.1 9 Nordeste 25 Nordeste 0 -- -- 44
2017-09-14 19:00:00 19.6 15 Nordeste 26 Nordeste 0 -- -- 39
2017-09-14 18:00:00 20.4 14 Nordeste 27 Nordeste 0 -- -- 37
2017-09-14 17:00:00 20.7 15 Nordeste 32 Nordeste 0 -- -- 38
2017-09-14 16:00:00 22.2 13 Nordeste 21 Nordeste 0 -- -- 38
2017-09-14 15:00:00 20.9 7 Noroeste 26 Noroeste 0 -- -- 42
2017-09-14 14:00:00 21 11 Oeste 20 Oeste 0 -- -- 43
2017-09-14 13:00:00 19.4 4 Sudeste 15 Nordeste 0 -- -- 52
2017-09-14 12:00:00 17.4 5 Nordeste 13 Nordeste 0 -- -- 56
2017-09-14 11:00:00 16.5 5 Norte 30 Oeste 0 -- -- 68
2017-09-14 10:00:00 15.6 23 Noroeste 32 Noroeste 0 -- -- 73
2017-09-14 09:00:00 13.5 17 Noroeste 33 Noroeste 0 -- -- 79
2017-09-14 08:00:00 11.9 10 Noroeste 18 Oeste 0 -- -- 84
2017-09-14 07:00:00 12.1 8 Oeste 21 Noroeste 0 -- -- 83
2017-09-14 06:00:00 12.4 9 Oeste 26 Oeste 0 -- -- 83
2017-09-14 05:00:00 13.5 22 Oeste 31 Oeste 0 -- -- 82
2017-09-14 04:00:00 14.3 19 Noroeste 42 Noroeste 0 -- -- 81
2017-09-14 03:00:00 15.1 27 Noroeste 41 Noroeste 0 -- -- 80
2017-09-14 02:00:00 15.8 17 Noroeste 29 Noroeste 0 -- -- 78
2017-09-14 01:00:00 16.5 20 Oeste 37 Noroeste 0 -- -- 75
2017-09-14 00:00:00 17.8 20 Noroeste 32 Noroeste 0 -- -- 69
2017-09-13 23:00:00 18.6 17 Noroeste 29 Oeste 0 -- -- 61
2017-09-13 22:00:00 20.1 15 Oeste 30 Oeste 0 -- -- 54
2017-09-13 21:00:00 21.7 17 Oeste 30 Oeste 0 -- -- 46
2017-09-13 20:00:00 24.7 20 Oeste 30 Oeste 0 -- -- 40
2017-09-13 19:00:00 26.6 20 Noroeste 32 Oeste 0 -- -- 35
2017-09-13 18:00:00 27.7 17 Oeste 27 Oeste 0 -- -- 32
2017-09-13 17:00:00 27.5 8 Sudoeste 21 Sudoeste 0 -- -- 30
2017-09-13 16:00:00 26.6 9 Sur 25 Sudeste 0 -- -- 32
2017-09-13 15:00:00 24.9 9 Sudoeste 23 Sudoeste 0 -- -- 36
2017-09-13 14:00:00 23.3 12 Sur 21 Sudoeste 0 -- -- 41
2017-09-13 13:00:00 21.3 10 Sudoeste 18 Sur 0 -- -- 51
2017-09-13 12:00:00 19.1 10 Sudoeste 17 Sudoeste 0 -- -- 60
2017-09-13 11:00:00 17.2 5 Sudoeste 12 Noroeste 0 -- -- 68
2017-09-13 10:00:00 14.4 9 Noroeste 14 Norte 0 -- -- 79
2017-09-13 09:00:00 10.5 8 Noroeste 12 Noroeste 0 -- -- 89
2017-09-13 08:00:00 9.3 8 Norte 12 Noroeste 0 -- -- 92
2017-09-13 07:00:00 9.6 8 Noroeste 13 Noroeste 0 -- -- 90
2017-09-13 06:00:00 10.4 7 Norte 12 Norte 0 -- -- 87
2017-09-13 05:00:00 12.5 3 Noroeste 19 Noroeste 0 -- -- 88
2017-09-13 04:00:00 13.3 14 Noroeste 24 Noroeste 0 -- -- 88
2017-09-13 03:00:00 13.3 13 Noroeste 23 Noroeste 0 -- -- 88
2017-09-13 02:00:00 13.5 8 Noroeste 27 Noroeste 0 -- -- 85
2017-09-13 01:00:00 14.4 16 Noroeste 32 Oeste 0 -- -- 83
2017-09-13 00:00:00 14.6 17 Noroeste 25 Noroeste 0 -- -- 79
2017-09-12 23:00:00 15.5 11 Oeste 27 Oeste 0 -- -- 74
2017-09-12 22:00:00 16.4 15 Oeste 26 Oeste 0 -- -- 70
2017-09-12 21:00:00 17.8 14 Oeste 28 Oeste 0 -- -- 63
2017-09-12 20:00:00 20.1 18 Oeste 34 Oeste 0 -- -- 53
2017-09-12 19:00:00 21.1 25 Oeste 42 Oeste 0 -- -- 50
2017-09-12 18:00:00 22 27 Oeste 42 Oeste 0 -- -- 49
2017-09-12 17:00:00 21.9 26 Oeste 44 Oeste 0 -- -- 49
2017-09-12 16:00:00 21.9 29 Oeste 45 Oeste 0 -- -- 47
2017-09-12 15:00:00 21.2 30 Oeste 44 Oeste 0 -- -- 49
2017-09-12 14:00:00 20.4 27 Oeste 39 Oeste 0 -- -- 54
2017-09-12 13:00:00 19.3 22 Oeste 35 Oeste 0 -- -- 57
2017-09-12 12:00:00 16.9 10 Oeste 19 Oeste 0 -- -- 65
2017-09-12 11:00:00 15.4 13 Oeste 22 Oeste 0 -- -- 69
2017-09-12 10:00:00 13.9 15 Oeste 22 Oeste 0 -- -- 75
2017-09-12 09:00:00 12.1 4 Norte 9 Oeste 0 -- -- 83
2017-09-12 08:00:00 11.9 6 Oeste 12 Noroeste 0 -- -- 82
2017-09-12 07:00:00 11.5 4 Noroeste 11 Noroeste 0 -- -- 84
2017-09-12 06:00:00 11.5 2 Norte 15 Noroeste 0 -- -- 83
2017-09-12 05:00:00 11.5 9 Noroeste 19 Oeste 0 -- -- 83
2017-09-12 04:00:00 11.4 12 Oeste 18 Oeste 0 -- -- 82
2017-09-12 03:00:00 11.1 13 Oeste 19 Oeste 0 -- -- 83
2017-09-12 02:00:00 12.4 12 Oeste 23 Oeste 0 -- -- 77
2017-09-12 01:00:00 13.7 17 Oeste 35 Oeste 0 -- -- 73
2017-09-12 00:00:00 14.8 19 Oeste 34 Oeste 0 -- -- 69
2017-09-11 23:00:00 15.5 22 Oeste 37 Oeste 0 -- -- 63
2017-09-11 22:00:00 16.6 23 Oeste 42 Oeste 0 -- -- 56
2017-09-11 21:00:00 17.9 27 Oeste 48 Oeste 0 -- -- 51
2017-09-11 20:00:00 19.8 29 Oeste 49 Oeste 0 -- -- 45
2017-09-11 19:00:00 20.4 29 Oeste 43 Oeste 0 -- -- 41
2017-09-11 18:00:00 21.3 27 Oeste 40 Oeste 0 -- -- 39
2017-09-11 17:00:00 23.1 23 Oeste 48 Sudoeste 0 -- -- 36
2017-09-11 16:00:00 22.7 27 Oeste 48 Oeste 0 -- -- 34
2017-09-11 15:00:00 22.2 32 Oeste 49 Oeste 0 -- -- 35
2017-09-11 14:00:00 21.8 32 Oeste 48 Oeste 0 -- -- 38
2017-09-11 13:00:00 20.9 29 Oeste 46 Oeste 0 -- -- 42
2017-09-11 12:00:00 19.8 31 Oeste 43 Oeste 0 -- -- 52
2017-09-11 11:00:00 19 27 Oeste 43 Oeste 0 -- -- 60
2017-09-11 10:00:00 17.4 21 Oeste 32 Oeste 0 -- -- 72
2017-09-11 09:00:00 14.5 6 Sur 16 Oeste 0 -- -- 91
2017-09-11 08:00:00 12.8 7 Oeste 13 Oeste 0 -- -- 92
2017-09-11 07:00:00 13.2 5 Oeste 14 Oeste 0 -- -- 91
2017-09-11 06:00:00 12.7 3 Oeste 17 Oeste 0 -- -- 90
2017-09-11 05:00:00 13.6 7 Oeste 14 Sudoeste 0 -- -- 87
2017-09-11 04:00:00 15.1 10 Oeste 18 Oeste 0 -- -- 83
2017-09-11 03:00:00 15.1 14 Oeste 25 Oeste 0 -- -- 82
2017-09-11 02:00:00 15.1 22 Oeste 28 Oeste 0 -- -- 81
2017-09-11 01:00:00 14.9 8 Sudoeste 17 Oeste 0 -- -- 81
2017-09-11 00:00:00 15.3 5 Oeste 21 Sudoeste 0 -- -- 78
2017-09-10 23:00:00 15.4 13 Oeste 23 Oeste 0 -- -- 76
2017-09-10 22:00:00 16 12 Oeste 24 Oeste 0 -- -- 71
2017-09-10 21:00:00 17.3 13 Oeste 32 Oeste 0 -- -- 65
2017-09-10 20:00:00 19.4 18 Oeste 40 Oeste 0 -- -- 55
2017-09-10 19:00:00 21.3 27 Oeste 40 Oeste 0 -- -- 46
2017-09-10 18:00:00 22.6 23 Oeste 38 Noroeste 0 -- -- 41
2017-09-10 17:00:00 22.5 26 Oeste 36 Oeste 0 -- -- 38
2017-09-10 16:00:00 21.7 17 Oeste 35 Oeste 0 -- -- 32
2017-09-10 15:00:00 20.2 10 Oeste 23 Noroeste 0 -- -- 36
2017-09-10 14:00:00 18.8 11 Oeste 26 Oeste 0 -- -- 41
2017-09-10 13:00:00 17.1 14 Oeste 24 Oeste 0 -- -- 44
2017-09-10 12:00:00 15.4 13 Oeste 24 Oeste 0 -- -- 47
2017-09-10 11:00:00 13.7 13 Noroeste 23 Oeste 0 -- -- 55
2017-09-10 10:00:00 11.5 12 Oeste 18 Noroeste 0 -- -- 67
2017-09-10 09:00:00 7.9 3 Oeste 9 Noroeste 0 -- -- 87
2017-09-10 08:00:00 7.2 4 Oeste 22 Noroeste 0 -- -- 87
2017-09-10 07:00:00 7 7 Noroeste 17 Noroeste 0 -- -- 87
2017-09-10 06:00:00 6.9 12 Noroeste 15 Noroeste 0 -- -- 85
2017-09-10 05:00:00 7.5 3 Sudoeste 17 Oeste 0 -- -- 79
2017-09-10 04:00:00 8.5 11 Noroeste 19 Oeste 0 -- -- 77
2017-09-10 03:00:00 9.4 14 Oeste 21 Oeste 0 -- -- 74
2017-09-10 02:00:00 10 12 Oeste 30 Oeste 0 -- -- 75
2017-09-10 01:00:00 10 12 Oeste 21 Oeste 0 -- -- 74
2017-09-10 00:00:00 10.8 9 Oeste 18 Oeste 0 -- -- 65
2017-09-09 23:00:00 11.9 10 Noroeste 30 Noroeste 0 -- -- 60
2017-09-09 22:00:00 12.9 12 Noroeste 22 Oeste 0 -- -- 53
2017-09-09 21:00:00 13.2 14 Noroeste 29 Noroeste 0 -- -- 47
2017-09-09 20:00:00 15.2 14 Noroeste 40 Noroeste 0 -- -- 43
2017-09-09 19:00:00 15.9 25 Noroeste 43 Norte 0 -- -- 44
2017-09-09 18:00:00 17.7 24 Noroeste 46 Oeste 0 -- -- 41
2017-09-09 17:00:00 18.5 30 Noroeste 57 Oeste 0 -- -- 33
2017-09-09 16:00:00 19.4 22 Noroeste 42 Oeste 0 -- -- 32
2017-09-09 15:00:00 18.1 21 Noroeste 37 Noroeste 0 -- -- 35
2017-09-09 14:00:00 16.5 18 Noroeste 42 Oeste 0 -- -- 41
2017-09-09 13:00:00 17.3 24 Noroeste 47 Noroeste 0 -- -- 44
2017-09-09 12:00:00 15.9 33 Oeste 47 Oeste 0 -- -- 54
2017-09-09 11:00:00 14.7 29 Oeste 40 Oeste 0 -- -- 58
2017-09-09 10:00:00 12.5 24 Oeste 40 Oeste 0 -- -- 69
2017-09-09 09:00:00 12.3 23 Noroeste 36 Noroeste 0 -- -- 71
2017-09-09 08:00:00 12.2 17 Noroeste 38 Oeste 0 -- -- 72
2017-09-09 07:00:00 12.9 22 Noroeste 34 Oeste 0 -- -- 76
2017-09-09 06:00:00 13.3 17 Oeste 33 Oeste 0 -- -- 79
2017-09-09 05:00:00 14 24 Oeste 41 Oeste 0 -- -- 77
2017-09-09 04:00:00 14.5 33 Oeste 53 Oeste 0 -- -- 71
2017-09-09 03:00:00 15.2 29 Oeste 49 Oeste 0 -- -- 67
2017-09-09 02:00:00 15.9 35 Oeste 54 Noroeste 0 -- -- 65
2017-09-09 01:00:00 16.9 37 Noroeste 52 Oeste 0 -- -- 64
2017-09-09 00:00:00 17.8 31 Oeste 50 Oeste 0 -- -- 61
2017-09-08 23:00:00 18.8 15 Oeste 27 Oeste 0 -- -- 52
2017-09-08 22:00:00 19.4 16 Oeste 37 Noroeste 0 -- -- 50
2017-09-08 21:00:00 20.9 18 Oeste 36 Oeste 0 -- -- 37
2017-09-08 20:00:00 23.9 17 Oeste 41 Oeste 0 -- -- 32
2017-09-08 19:00:00 26.1 27 Oeste 41 Oeste 0 -- -- 26
2017-09-08 18:00:00 27.8 17 Oeste 25 Oeste 0 -- -- 19
2017-09-08 17:00:00 28 17 Oeste 37 Oeste 0 -- -- 18
2017-09-08 16:00:00 26.9 15 Sudoeste 25 Sur 0 -- -- 26
2017-09-08 15:00:00 25.8 9 Sudoeste 26 Sudoeste 0 -- -- 27
2017-09-08 14:00:00 23.9 11 Sudoeste 19 Sudoeste 0 -- -- 31
2017-09-08 13:00:00 21.4 7 Sudoeste 16 Sudoeste 0 -- -- 38
2017-09-08 12:00:00 18.8 5 Noroeste 12 Oeste 0 -- -- 47
2017-09-08 11:00:00 16.6 3 Sudoeste 9 Noroeste 0 -- -- 51
2017-09-08 10:00:00 12.5 7 Noroeste 14 Noroeste 0 -- -- 54
2017-09-08 09:00:00 7.7 9 Norte 15 Noroeste 0 -- -- 74
2017-09-08 08:00:00 6.1 7 Noroeste 13 Noroeste 0 -- -- 82
2017-09-08 07:00:00 7 7 Noroeste 13 Norte 0 -- -- 81
2017-09-08 06:00:00 7.4 9 Norte 12 Norte 0 -- -- 80
2017-09-08 05:00:00 8.1 7 Norte 11 Noroeste 0 -- -- 80
2017-09-08 04:00:00 9.2 7 Norte 10 Noroeste 0 -- -- 76
2017-09-08 03:00:00 12.7 4 Noroeste 19 Este 0 -- -- 67
2017-09-08 02:00:00 13.3 9 Este 13 Este 0 -- -- 62
2017-09-08 01:00:00 15 8 Norte 20 Nordeste 0 -- -- 52
2017-09-08 00:00:00 13.4 10 Nordeste 15 Norte 0 -- -- 56
2017-09-07 23:00:00 14.5 10 Norte 13 Noroeste 0 -- -- 60
2017-09-07 22:00:00 16.6 8 Oeste 9 Noroeste 0 -- -- 55
2017-09-07 21:00:00 20.2 3 Oeste 6 Noroeste 0 -- -- 44
2017-09-07 20:00:00 23.9 5 Sur 15 Sur 0 -- -- 34
2017-09-07 19:00:00 25.5 12 Sur 17 Sur 0 -- -- 28
2017-09-07 18:00:00 25.8 11 Sudeste 20 Sudeste 0 -- -- 24
2017-09-07 17:00:00 26 12 Sur 19 Sur 0 -- -- 25
2017-09-07 16:00:00 24.8 9 Sudeste 17 Sudeste 0 -- -- 31
2017-09-07 15:00:00 23.3 9 Sur 15 Sur 0 -- -- 35
2017-09-07 14:00:00 20.9 7 Sur 13 Sur 0 -- -- 41
2017-09-07 13:00:00 18.3 7 Sur 15 Sudoeste 0 -- -- 50
2017-09-07 12:00:00 15.5 4 Sur 12 Sudoeste 0 -- -- 58
2017-09-07 11:00:00 12.9 5 Sur 9 Sur 0 -- -- 68
2017-09-07 10:00:00 10.3 3 Noroeste 6 Noroeste 0 -- -- 71
2017-09-07 09:00:00 6.3 5 Norte 10 Noroeste 0 -- -- 79
2017-09-07 08:00:00 4.8 6 Norte 10 Norte 0 -- -- 84
2017-09-07 07:00:00 5.2 7 Norte 9 Noroeste 0 -- -- 82
2017-09-07 06:00:00 5.8 7 Norte 9 Norte 0 -- -- 84
2017-09-07 05:00:00 6.7 7 Noroeste 10 Noroeste 0 -- -- 83
2017-09-07 04:00:00 7.9 0 Calma 6 Sudeste 0 -- -- 80
2017-09-07 03:00:00 8.8 2 Este 5 Norte 0 -- -- 79
2017-09-07 02:00:00 9.7 2 Noroeste 13 Este 0 -- -- 79
2017-09-07 01:00:00 11.6 4 Nordeste 9 Este 0 -- -- 64
2017-09-07 00:00:00 13.3 5 Nordeste 16 Norte 0 -- -- 52
2017-09-06 23:00:00 15.1 5 Norte 15 Nordeste 0 -- -- 46
2017-09-06 22:00:00 17.6 11 Nordeste 18 Nordeste 0 -- -- 37
2017-09-06 21:00:00 20.4 8 Nordeste 18 Norte 0 -- -- 35
2017-09-06 20:00:00 23.8 14 Norte 23 Noroeste 0 -- -- 23
2017-09-06 19:00:00 26.8 4 Sudoeste 17 Sudoeste 0 -- -- 31
2017-09-06 18:00:00 27 7 Sur 24 Sudeste 0 -- -- 31
2017-09-06 17:00:00 26.1 5 Nordeste 15 Sudeste 0 -- -- 33
2017-09-06 16:00:00 26.1 5 Sudoeste 17 Oeste 0 -- -- 34
2017-09-06 15:00:00 24.8 4 Oeste 15 Sudoeste 0 -- -- 37
2017-09-06 14:00:00 24 5 Oeste 13 Este 0 -- -- 41
2017-09-06 13:00:00 22 4 Nordeste 10 Sudeste 0 -- -- 47
2017-09-06 12:00:00 20.5 3 Norte 9 Norte 0 -- -- 51
2017-09-06 11:00:00 18.4 6 Noroeste 17 Noroeste 0 -- -- 58
2017-09-06 10:00:00 16 5 Noroeste 12 Noroeste 0 -- -- 74
2017-09-06 09:00:00 11.8 4 Norte 6 Noroeste 0 -- -- 90
2017-09-06 08:00:00 10.4 4 Nordeste 6 Norte 0 -- -- 89
2017-09-06 07:00:00 10.9 2 Nordeste 4 Nordeste 0 -- -- 85
2017-09-06 06:00:00 12.3 2 Nordeste 13 Nordeste 0 -- -- 83
2017-09-06 05:00:00 12.7 9 Nordeste 13 Este 0 -- -- 83
2017-09-06 04:00:00 13.6 8 Norte 15 Norte 0 -- -- 83
2017-09-06 03:00:00 15 11 Norte 21 Norte 0 -- -- 80
2017-09-06 02:00:00 15.8 10 Norte 22 Noroeste 0 -- -- 78
2017-09-06 01:00:00 16.3 12 Norte 17 Norte 0 -- -- 78
2017-09-06 00:00:00 17 8 Nordeste 12 Nordeste 0 -- -- 75
2017-09-05 23:00:00 18.6 6 Nordeste 17 Norte 0 -- -- 68
2017-09-05 22:00:00 19.9 9 Nordeste 22 Noroeste 0 -- -- 62
2017-09-05 21:00:00 23.5 10 Noroeste 30 Noroeste 0 -- -- 41
2017-09-05 20:00:00 27.1 14 Noroeste 27 Noroeste 0 -- -- 32
2017-09-05 19:00:00 29 19 Oeste 30 Oeste 0 -- -- 27
2017-09-05 18:00:00 30.4 16 Oeste 27 Oeste 0 -- -- 26
2017-09-05 17:00:00 30.6 16 Oeste 31 Oeste 0 -- -- 19
2017-09-05 16:00:00 29.7 12 Sudoeste 23 Oeste 0 -- -- 28
2017-09-05 15:00:00 28.1 8 Noroeste 21 Oeste 0 -- -- 35
2017-09-05 14:00:00 26.5 8 Sudoeste 19 Oeste 0 -- -- 38
2017-09-05 13:00:00 25.1 6 Sudeste 12 Sudeste 0 -- -- 47
2017-09-05 12:00:00 23.2 3 Nordeste 9 Noroeste 0 -- -- 54
2017-09-05 11:00:00 21.2 3 Norte 9 Este 0 -- -- 60
2017-09-05 10:00:00 17.7 4 Norte 13 Noroeste 0 -- -- 73
2017-09-05 09:00:00 13.7 7 Noroeste 12 Norte 0 -- -- 88
2017-09-05 08:00:00 12 8 Norte 15 Norte 0 -- -- 91
2017-09-05 07:00:00 11.9 9 Noroeste 13 Noroeste 0 -- -- 91
2017-09-05 06:00:00 12.4 8 Noroeste 10 Norte 0 -- -- 89
2017-09-05 05:00:00 13.6 9 Norte 14 Noroeste 0 -- -- 86
2017-09-05 04:00:00 13.8 8 Noroeste 15 Norte 0 -- -- 86
2017-09-05 03:00:00 13.9 9 Noroeste 17 Nordeste 0 -- -- 86
2017-09-05 02:00:00 14.8 9 Norte 14 Norte 0 -- -- 84
2017-09-05 01:00:00 15.6 10 Norte 12 Norte 0 -- -- 81
2017-09-05 00:00:00 16.7 9 Norte 13 Noroeste 0 -- -- 77
2017-09-04 23:00:00 17.1 10 Norte 13 Norte 0 -- -- 75
2017-09-04 22:00:00 19.7 0 Calma 7 Sudeste 0 -- -- 65
2017-09-04 21:00:00 23.1 6 Sudeste 13 Sudeste 0 -- -- 50
2017-09-04 20:00:00 25.6 8 Sudeste 15 Sudeste 0 -- -- 43
2017-09-04 19:00:00 26.2 10 Este 20 Sudeste 0 -- -- 41
2017-09-04 18:00:00 26.3 10 Sudeste 23 Sudeste 0 -- -- 42
2017-09-04 17:00:00 26.1 6 Este 24 Sudeste 0 -- -- 41
2017-09-04 16:00:00 25.1 6 Este 24 Sudeste 0 -- -- 43
2017-09-04 15:00:00 24.4 3 Este 18 Sudoeste 0 -- -- 44
2017-09-04 14:00:00 24.1 5 Norte 17 Oeste 0 -- -- 45
2017-09-04 13:00:00 22.9 6 Oeste 18 Oeste 0 -- -- 48
2017-09-04 12:00:00 21.3 12 Noroeste 24 Oeste 0 -- -- 54
2017-09-04 11:00:00 19.6 16 Noroeste 31 Oeste 0 -- -- 65
2017-09-04 10:00:00 17.5 16 Noroeste 27 Noroeste 0 -- -- 77
2017-09-04 09:00:00 15.2 9 Noroeste 18 Oeste 0 -- -- 92
2017-09-04 08:00:00 12.3 4 Oeste 8 Sur 0 -- -- 91
2017-09-04 07:00:00 13.6 7 Oeste 20 Oeste 0 -- -- 92
2017-09-04 06:00:00 13.5 12 Oeste 18 Noroeste 0 -- -- 91
2017-09-04 05:00:00 13.6 13 Oeste 18 Oeste 0 -- -- 89
2017-09-04 04:00:00 14.3 12 Oeste 25 Oeste 0 -- -- 85
2017-09-04 03:00:00 15.3 17 Oeste 27 Oeste 0 -- -- 82
2017-09-04 02:00:00 15.4 9 Oeste 17 Oeste 0 -- -- 85
2017-09-04 01:00:00 15.7 10 Oeste 17 Oeste 0 -- -- 83
2017-09-04 00:00:00 16.8 5 Oeste 18 Oeste 0 -- -- 75
2017-09-03 23:00:00 18.4 12 Oeste 33 Oeste 0 -- -- 67
2017-09-03 22:00:00 19.7 18 Noroeste 30 Noroeste 0 -- -- 53
2017-09-03 21:00:00 22.4 20 Oeste 45 Oeste 0 -- -- 39
2017-09-03 20:00:00 24.1 30 Noroeste 50 Oeste 0 -- -- 38
2017-09-03 19:00:00 26.1 28 Oeste 43 Noroeste 0 -- -- 34
2017-09-03 18:00:00 28.1 23 Oeste 35 Oeste 0 -- -- 30
2017-09-03 17:00:00 27.6 18 Noroeste 39 Oeste 0 -- -- 31
2017-09-03 16:00:00 26.2 28 Noroeste 39 Oeste 0 -- -- 37
2017-09-03 15:00:00 27.3 23 Noroeste 37 Oeste 0 -- -- 37
2017-09-03 14:00:00 24.7 13 Sur 21 Sur 0 -- -- 36
2017-09-03 13:00:00 23 11 Sudoeste 20 Oeste 0 -- -- 38
2017-09-03 12:00:00 22.1 4 Sudoeste 13 Sudoeste 0 -- -- 41
2017-09-03 11:00:00 19.4 4 Sudoeste 10 Oeste 0 -- -- 53
2017-09-03 10:00:00 16.8 6 Oeste 8 Oeste 0 -- -- 63
2017-09-03 09:00:00 13.2 2 Sudoeste 9 Noroeste 0 -- -- 79
2017-09-03 08:00:00 12.5 5 Noroeste 8 Noroeste 0 -- -- 77
2017-09-03 07:00:00 13.4 0 Calma 11 Noroeste 0 -- -- 75
2017-09-03 06:00:00 14.2 0 Calma 7 Norte 0 -- -- 74
2017-09-03 05:00:00 14.2 7 Norte 14 Norte 0 -- -- 73
2017-09-03 04:00:00 14.4 4 Norte 8 Noroeste 0 -- -- 76
2017-09-03 03:00:00 14.1 4 Noroeste 12 Noroeste 0 -- -- 72
2017-09-03 02:00:00 14.1 9 Norte 12 Norte 0 -- -- 74
2017-09-03 01:00:00 14.5 7 Noroeste 8 Noroeste 0 -- -- 79
2017-09-03 00:00:00 15.2 5 Norte 8 Norte 0 -- -- 75
2017-09-02 23:00:00 15.9 6 Norte 8 Noroeste 0 -- -- 69
2017-09-02 22:00:00 16.9 4 Este 6 Este 0 -- -- 64
2017-09-02 21:00:00 18.6 3 Nordeste 8 Este 0 -- -- 56
2017-09-02 20:00:00 20.6 7 Sudeste 14 Sudeste 0 -- -- 45
2017-09-02 19:00:00 22.6 8 Sudeste 14 Sudoeste 0 -- -- 38
2017-09-02 18:00:00 22.6 8 Sur 20 Sur 0 -- -- 33
2017-09-02 17:00:00 21.8 7 Sur 17 Sur 0 -- -- 38
2017-09-02 16:00:00 20.8 8 Sudoeste 17 Sudoeste 0 -- -- 41
2017-09-02 15:00:00 19.8 6 Sudoeste 15 Sur 0 -- -- 44
2017-09-02 14:00:00 18.1 6 Sur 12 Sudeste 0 -- -- 49
2017-09-02 13:00:00 16.3 6 Sur 13 Sur 0 -- -- 55
2017-09-02 12:00:00 14.8 5 Oeste 9 Oeste 0 -- -- 61
2017-09-02 11:00:00 13.2 0 Calma 8 Sudeste 0 -- -- 67
2017-09-02 10:00:00 10.6 3 Norte 9 Noroeste 0 -- -- 75
2017-09-02 09:00:00 6.5 4 Norte 9 Noroeste 0 -- -- 91
2017-09-02 08:00:00 4.3 3 Norte 11 Norte 0 -- -- 91
2017-09-02 07:00:00 5 7 Norte 15 Norte 0 -- -- 91
2017-09-02 06:00:00 5.4 7 Noroeste 9 Noroeste 0 -- -- 90
2017-09-02 05:00:00 6.2 8 Norte 11 Noroeste 0 -- -- 88
2017-09-02 04:00:00 7.2 5 Este 8 Este 0 -- -- 86
2017-09-02 03:00:00 7.3 4 Nordeste 6 Norte 0 -- -- 84
2017-09-02 02:00:00 9 4 Nordeste 9 Norte 0 -- -- 80
2017-09-02 01:00:00 10.3 7 Norte 14 Nordeste 0 -- -- 75
2017-09-02 00:00:00 11.8 9 Nordeste 27 Nordeste 0 -- -- 67
2017-09-01 23:00:00 12.7 13 Nordeste 31 Nordeste 0 -- -- 63
2017-09-01 22:00:00 13.6 15 Nordeste 29 Nordeste 0 -- -- 61
2017-09-01 21:00:00 15.1 17 Nordeste 36 Nordeste 0 -- -- 56
2017-09-01 20:00:00 17.7 24 Nordeste 36 Norte 0 -- -- 47
2017-09-01 19:00:00 20.3 17 Nordeste 30 Norte 0 -- -- 38
2017-09-01 18:00:00 21.7 11 Nordeste 24 Nordeste 0 -- -- 34
2017-09-01 17:00:00 22 8 Norte 26 Noroeste 0 -- -- 34
2017-09-01 16:00:00 21.4 12 Norte 30 Noroeste 0 -- -- 33
2017-09-01 15:00:00 20.8 13 Noroeste 27 Norte 0 -- -- 34
2017-09-01 14:00:00 19.8 5 Noroeste 21 Noroeste 0 -- -- 38
2017-09-01 13:00:00 17.9 4 Nordeste 12 Nordeste 0 -- -- 49
2017-09-01 12:00:00 16 5 Nordeste 14 Noroeste 0 -- -- 64
2017-09-01 11:00:00 14.3 8 Norte 12 Norte 0 -- -- 73
2017-09-01 10:00:00 11.5 5 Norte 9 Norte 0 -- -- 92
2017-09-01 09:00:00 9.1 4 Noroeste 8 Noroeste 0 -- -- 95
2017-09-01 08:00:00 7.3 5 Noroeste 6 Noroeste 0 -- -- 93
2017-09-01 07:00:00 7.8 4 Noroeste 8 Noroeste 0 -- -- 92
2017-09-01 06:00:00 8.3 4 Noroeste 6 Este 0 -- -- 91
2017-09-01 05:00:00 9.7 5 Este 8 Nordeste 0 -- -- 87
2017-09-01 04:00:00 9.8 4 Nordeste 9 Norte 0 -- -- 88
2017-09-01 03:00:00 10.8 4 Nordeste 11 Nordeste 0 -- -- 86
2017-09-01 02:00:00 11.5 9 Nordeste 13 Nordeste 0 -- -- 83
2017-09-01 01:00:00 12.5 7 Nordeste 9 Norte 0 -- -- 81
2017-09-01 00:00:00 12.7 6 Nordeste 12 Norte 0 -- -- 79
2017-08-31 23:00:00 12.9 7 Norte 18 Norte 0 -- -- 79
2017-08-31 22:00:00 14.8 11 Norte 20 Norte 0 -- -- 72
2017-08-31 21:00:00 17.8 6 Sudeste 15 Sudeste 0 -- -- 57
2017-08-31 20:00:00 20.7 10 Sur 16 Sudeste 0 -- -- 44
2017-08-31 19:00:00 21.9 9 Sur 17 Sur 0 -- -- 39
2017-08-31 18:00:00 21.9 3 Oeste 15 Oeste 0 -- -- 38
2017-08-31 17:00:00 21.3 6 Sur 18 Este 0 -- -- 41
2017-08-31 16:00:00 19.6 4 Este 20 Sur 0 -- -- 45
2017-08-31 15:00:00 19.1 5 Sudoeste 18 Oeste 0 -- -- 49
2017-08-31 14:00:00 18.7 7 Sudoeste 16 Sudeste 0 -- -- 54
2017-08-31 13:00:00 17.5 3 Sudeste 13 Sur 0 -- -- 60
2017-08-31 12:00:00 16.4 4 Sur 11 Este 0 -- -- 66
2017-08-31 11:00:00 14.5 0 Calma 10 Este 0 -- -- 75
2017-08-31 10:00:00 13.2 4 Este 10 Nordeste 0 -- -- 87
2017-08-31 09:00:00 9.9 2 Norte 7 Norte 0 -- -- 96
2017-08-31 08:00:00 8.2 5 Norte 8 Norte 0 -- -- 95
2017-08-31 07:00:00 8.5 5 Norte 6 Este 0 -- -- 94
2017-08-31 06:00:00 8.3 5 Este 11 Norte 0 -- -- 94
2017-08-31 05:00:00 8.6 7 Norte 10 Norte 0 -- -- 94
2017-08-31 04:00:00 9.2 6 Norte 12 Norte 0 -- -- 93
2017-08-31 03:00:00 9.8 9 Norte 13 Norte 0 -- -- 93
2017-08-31 02:00:00 10.6 8 Norte 10 Norte 0 -- -- 92
2017-08-31 01:00:00 11.7 4 Nordeste 9 Norte 0 -- -- 90
2017-08-31 00:00:00 12.5 4 Norte 9 Norte 0 -- -- 90
2017-08-30 23:00:00 13.4 6 Noroeste 12 Norte 0 -- -- 89
2017-08-30 22:00:00 15 3 Noroeste 11 Norte 0.2 -- -- 90
2017-08-30 21:00:00 15.3 8 Noroeste 16 Noroeste 1.2 -- -- 86
2017-08-30 20:00:00 16.9 6 Noroeste 19 Norte 0.4 -- -- 83
2017-08-30 19:00:00 18.1 4 Norte 28 Noroeste 0.4 -- -- 80
2017-08-30 18:00:00 19.7 23 Noroeste 38 Noroeste 0 -- -- 70
2017-08-30 17:00:00 22.2 7 Noroeste 16 Norte 0 -- -- 56
2017-08-30 16:00:00 20.5 5 Sur 17 Sudoeste 0.2 -- -- 60
2017-08-30 15:00:00 19.4 12 Oeste 27 Noroeste 0 -- -- 73
2017-08-30 14:00:00 21.8 7 Oeste 20 Sudoeste 0 -- -- 54
2017-08-30 13:00:00 21.6 8 Sudoeste 18 Sudoeste 0 -- -- 56
2017-08-30 12:00:00 19.7 4 Oeste 10 Oeste 0 -- -- 67
2017-08-30 11:00:00 18 5 Sur 13 Sudoeste 0 -- -- 74
2017-08-30 10:00:00 16.5 4 Oeste 9 Este 0 -- -- 81
2017-08-30 09:00:00 12.8 3 Norte 9 Noroeste 0 -- -- 93
2017-08-30 08:00:00 12.5 3 Norte 6 Noroeste 0 -- -- 92
2017-08-30 07:00:00 13.1 4 Norte 12 Norte 0 -- -- 92
2017-08-30 06:00:00 13 8 Noroeste 10 Noroeste 0 -- -- 91
2017-08-30 05:00:00 13.8 8 Norte 9 Norte 0 -- -- 89
2017-08-30 04:00:00 13.9 6 Norte 11 Noroeste 0 -- -- 89
2017-08-30 03:00:00 14.8 9 Norte 14 Este 0 -- -- 85
2017-08-30 02:00:00 16 9 Nordeste 17 Este 0 -- -- 78
2017-08-30 01:00:00 16.1 6 Nordeste 14 Norte 0 -- -- 79
2017-08-30 00:00:00 15.9 10 Nordeste 29 Este 0 -- -- 78
2017-08-29 23:00:00 15.8 10 Norte 13 Noroeste 0 -- -- 80
2017-08-29 22:00:00 17.9 5 Oeste 8 Oeste 0 -- -- 73
2017-08-29 21:00:00 21 5 Sur 10 Sudoeste 0 -- -- 60
2017-08-29 20:00:00 23.4 7 Sur 16 Sudeste 0 -- -- 47
2017-08-29 19:00:00 24.1 9 Sudeste 19 Sur 0 -- -- 43
2017-08-29 18:00:00 23.9 11 Sudeste 22 Sudeste 0 -- -- 43
2017-08-29 17:00:00 23.8 14 Sudeste 24 Sudeste 0 -- -- 44
2017-08-29 16:00:00 23.1 8 Sudeste 31 Sudeste 0 -- -- 50
2017-08-29 15:00:00 22.8 15 Sudeste 25 Sudeste 0 -- -- 53
2017-08-29 14:00:00 21.8 10 Sudeste 19 Sudeste 0 -- -- 61
2017-08-29 13:00:00 20.1 10 Este 19 Este 0 -- -- 65
2017-08-29 12:00:00 17.7 8 Sudeste 15 Sudeste 0 -- -- 74
2017-08-29 11:00:00 16.4 7 Este 19 Este 0 -- -- 78
2017-08-29 10:00:00 17.6 6 Este 14 Este 0 -- -- 73
2017-08-29 09:00:00 14 4 Noroeste 9 Norte 0 -- -- 91
2017-08-29 08:00:00 12.7 7 Nordeste 12 Nordeste 0 -- -- 91
2017-08-29 07:00:00 13.6 2 Nordeste 9 Sur 0 -- -- 91
2017-08-29 06:00:00 14.5 4 Nordeste 11 Norte 0 -- -- 89
2017-08-29 05:00:00 15.2 7 Norte 9 Norte 0 -- -- 89
2017-08-29 04:00:00 15.4 2 Norte 3 Norte 0 -- -- 90
2017-08-29 03:00:00 15.5 2 Nordeste 10 Nordeste 0 -- -- 86
2017-08-29 02:00:00 15.7 4 Nordeste 9 Nordeste 0 -- -- 85
2017-08-29 01:00:00 15.7 6 Nordeste 21 Nordeste 0 -- -- 84
2017-08-29 00:00:00 16.7 7 Nordeste 13 Este 0 -- -- 81
2017-08-28 23:00:00 16.7 5 Nordeste 14 Este 0 -- -- 83
2017-08-28 22:00:00 16.7 6 Este 25 Sudeste 0 -- -- 83
2017-08-28 21:00:00 17.6 12 Este 33 Este 0 -- -- 77
2017-08-28 20:00:00 18.3 14 Este 36 Este 0 -- -- 77
2017-08-28 19:00:00 18.6 16 Este 27 Este 0 -- -- 78
2017-08-28 18:00:00 17.9 17 Sudeste 40 Sudeste 2.2 -- -- 78
2017-08-28 17:00:00 22.6 23 Sudeste 33 Sudeste 0 -- -- 57
2017-08-28 16:00:00 24.1 14 Este 31 Este 0 -- -- 54
2017-08-28 15:00:00 25.1 17 Este 30 Este 0 -- -- 50
2017-08-28 14:00:00 24.5 13 Sudeste 27 Sudeste 0 -- -- 50
2017-08-28 13:00:00 23.2 14 Sudeste 30 Este 0 -- -- 59
2017-08-28 12:00:00 21.4 17 Este 34 Este 0 -- -- 65
2017-08-28 11:00:00 20.2 21 Este 31 Este 0 -- -- 69
2017-08-28 10:00:00 18.4 16 Nordeste 26 Nordeste 0 -- -- 77
2017-08-28 09:00:00 15.7 10 Nordeste 22 Nordeste 0 -- -- 85
2017-08-28 08:00:00 15.1 10 Nordeste 21 Nordeste 0 -- -- 88
2017-08-28 07:00:00 14.1 12 Nordeste 20 Nordeste 2.6 -- -- 94
2017-08-28 06:00:00 13.6 5 Noroeste 9 Noroeste 0 -- -- 92
2017-08-28 05:00:00 14.1 9 Norte 15 Norte 0 -- -- 90
2017-08-28 04:00:00 13.9 7 Nordeste 11 Este 0 -- -- 89
2017-08-28 03:00:00 14.8 9 Este 14 Nordeste 0 -- -- 87
2017-08-28 02:00:00 15.5 12 Este 17 Este 0 -- -- 86
2017-08-28 01:00:00 14.4 6 Nordeste 14 Norte 0 -- -- 89
2017-08-28 00:00:00 15 10 Norte 22 Norte 0 -- -- 86
2017-08-27 23:00:00 15.2 17 Norte 25 Norte 0 -- -- 86
2017-08-27 22:00:00 15.6 10 Norte 20 Noroeste 0 -- -- 83
2017-08-27 21:00:00 18.1 9 Norte 22 Nordeste 0 -- -- 73
2017-08-27 20:00:00 19.8 10 Nordeste 27 Este 0 -- -- 68
2017-08-27 19:00:00 18.7 5 Nordeste 55 Este 0 -- -- 74
2017-08-27 18:00:00 21.1 27 Este 46 Este 0 -- -- 61
2017-08-27 17:00:00 23.4 24 Este 39 Este 0 -- -- 56
2017-08-27 16:00:00 22.9 24 Este 39 Este 0 -- -- 58
2017-08-27 15:00:00 22.1 19 Este 33 Este 0 -- -- 64
2017-08-27 14:00:00 19.4 22 Este 34 Este 0 -- -- 75
2017-08-27 13:00:00 18.4 23 Este 34 Este 0 -- -- 78
2017-08-27 12:00:00 18 16 Nordeste 29 Nordeste 0 -- -- 78
2017-08-27 11:00:00 16.3 14 Nordeste 32 Nordeste 0 -- -- 85
2017-08-27 10:00:00 17 18 Este 28 Nordeste 0 -- -- 78
2017-08-27 09:00:00 16 4 Nordeste 20 Sur 0 -- -- 83
2017-08-27 08:00:00 16.5 15 Sudeste 28 Sudeste 0 -- -- 75
2017-08-27 07:00:00 16.3 9 Este 25 Este 0 -- -- 74
2017-08-27 06:00:00 15.8 11 Nordeste 18 Nordeste 0 -- -- 78
2017-08-27 05:00:00 13.8 4 Noroeste 6 Norte 0 -- -- 92
2017-08-27 04:00:00 13.9 3 Norte 10 Norte 0 -- -- 91
2017-08-27 03:00:00 14 8 Norte 13 Norte 0 -- -- 90
2017-08-27 02:00:00 14 8 Noroeste 12 Norte 0 -- -- 90
2017-08-27 01:00:00 14.3 5 Norte 13 Norte 0 -- -- 90
2017-08-27 00:00:00 15 10 Noroeste 20 Oeste 0 -- -- 86
2017-08-26 23:00:00 16 8 Nordeste 16 Norte 0 -- -- 83
2017-08-26 22:00:00 17.5 10 Nordeste 24 Nordeste 0.8 -- -- 73
2017-08-26 21:00:00 18.8 8 Nordeste 27 Nordeste 1 -- -- 68
2017-08-26 20:00:00 21 15 Nordeste 25 Nordeste 1.6 -- -- 58
2017-08-26 19:00:00 22 13 Este 37 Este 0.4 -- -- 56
2017-08-26 18:00:00 26.4 16 Sudeste 26 Sudeste 0 -- -- 34
2017-08-26 17:00:00 26.7 14 Sudeste 29 Sudeste 0 -- -- 35
2017-08-26 16:00:00 26.5 15 Sur 27 Sudeste 0 -- -- 37
2017-08-26 15:00:00 22.9 10 Sudeste 21 Este 0 -- -- 46
2017-08-26 14:00:00 20.6 8 Sudeste 28 Sudeste 0 -- -- 55
2017-08-26 13:00:00 20 8 Este 23 Sudeste 0 -- -- 55
2017-08-26 12:00:00 20.6 4 Este 12 Este 0 -- -- 46
2017-08-26 11:00:00 20 2 Nordeste 10 Este 0 -- -- 45
2017-08-26 10:00:00 15.4 2 Nordeste 5 Noroeste 0 -- -- 70
2017-08-26 09:00:00 12.4 3 Noroeste 9 Norte 0 -- -- 77
2017-08-26 08:00:00 10.8 7 Norte 10 Noroeste 0 -- -- 83
2017-08-26 07:00:00 11.1 6 Norte 10 Norte 0 -- -- 83
2017-08-26 06:00:00 12 6 Norte 9 Norte 0 -- -- 80
2017-08-26 05:00:00 12.8 6 Norte 14 Norte 0 -- -- 77
2017-08-26 04:00:00 13.3 11 Norte 15 Norte 0 -- -- 74
2017-08-26 03:00:00 13.6 9 Norte 13 Norte 0 -- -- 71
2017-08-26 02:00:00 14.5 9 Norte 18 Noroeste 0 -- -- 65
2017-08-26 01:00:00 15.4 10 Noroeste 14 Norte 0 -- -- 60
2017-08-26 00:00:00 16.8 11 Noroeste 14 Noroeste 0 -- -- 57
2017-08-25 23:00:00 17.8 10 Noroeste 15 Este 0 -- -- 52
2017-08-25 22:00:00 19.2 9 Este 13 Este 0 -- -- 47
2017-08-25 21:00:00 22 8 Este 12 Este 0 -- -- 44
2017-08-25 20:00:00 25.6 8 Este 18 Sudeste 0 -- -- 35
2017-08-25 19:00:00 27.1 11 Sudeste 18 Sudeste 0 -- -- 30
2017-08-25 18:00:00 27.7 10 Sudeste 18 Nordeste 0 -- -- 27
2017-08-25 17:00:00 27.3 6 Sur 18 Sur 0 -- -- 27
2017-08-25 16:00:00 26.6 7 Sur 24 Sudeste 0 -- -- 33
2017-08-25 15:00:00 25.5 7 Sur 18 Sur 0 -- -- 34
2017-08-25 14:00:00 24.2 7 Sudeste 17 Sur 0 -- -- 38
2017-08-25 13:00:00 22.8 8 Sudoeste 14 Sur 0 -- -- 43
2017-08-25 12:00:00 21.2 4 Sur 11 Sudeste 0 -- -- 59
2017-08-25 11:00:00 19.2 4 Sudoeste 8 Sur 0 -- -- 67
2017-08-25 10:00:00 16.4 3 Noroeste 9 Noroeste 0 -- -- 79
2017-08-25 09:00:00 12.3 6 Noroeste 10 Noroeste 0 -- -- 91
2017-08-25 08:00:00 10.4 7 Noroeste 10 Norte 0 -- -- 92
2017-08-25 07:00:00 10.7 6 Norte 9 Noroeste 0 -- -- 91
2017-08-25 06:00:00 11.3 6 Norte 10 Norte 0 -- -- 91
2017-08-25 05:00:00 11.9 8 Noroeste 10 Noroeste 0 -- -- 89
2017-08-25 04:00:00 12.7 8 Norte 12 Norte 0 -- -- 88
2017-08-25 03:00:00 13.8 9 Norte 11 Norte 0 -- -- 86
2017-08-25 02:00:00 14 6 Nordeste 10 Norte 0 -- -- 84
2017-08-25 01:00:00 15 8 Norte 14 Norte 0 -- -- 83
2017-08-25 00:00:00 16.6 10 Norte 12 Norte 0 -- -- 77
2017-08-24 23:00:00 18.7 8 Noroeste 15 Oeste 0 -- -- 64
2017-08-24 22:00:00 20.5 13 Oeste 15 Oeste 0 -- -- 54
2017-08-24 21:00:00 24 5 Sudoeste 21 Oeste 0 -- -- 45
2017-08-24 20:00:00 27.3 12 Oeste 30 Sur 0 -- -- 37
2017-08-24 19:00:00 28.9 19 Sudeste 28 Sudeste 0 -- -- 25
2017-08-24 18:00:00 29.8 15 Sur 24 Sur 0 -- -- 23
2017-08-24 17:00:00 29.7 13 Sur 27 Sudoeste 0 -- -- 25
2017-08-24 16:00:00 28.5 5 Sudeste 20 Sur 0 -- -- 33
2017-08-24 15:00:00 27.2 12 Sur 22 Sur 0 -- -- 44
2017-08-24 14:00:00 26.1 13 Sudoeste 23 Sur 0 -- -- 45
2017-08-24 13:00:00 25.1 10 Sudeste 16 Sudeste 0 -- -- 50
2017-08-24 12:00:00 23.8 8 Sudeste 16 Este 0 -- -- 52
2017-08-24 11:00:00 21.6 9 Este 19 Este 0 -- -- 60
2017-08-24 10:00:00 19.7 13 Este 22 Este 0 -- -- 68
2017-08-24 09:00:00 15.3 4 Norte 8 Norte 0 -- -- 82
2017-08-24 08:00:00 12.6 6 Norte 11 Norte 0 -- -- 86
2017-08-24 07:00:00 12.7 8 Norte 11 Norte 0 -- -- 83
2017-08-24 06:00:00 13.1 6 Norte 10 Norte 0 -- -- 80
2017-08-24 05:00:00 14.5 6 Noroeste 10 Nordeste 0 -- -- 76
2017-08-24 04:00:00 16.4 7 Nordeste 15 Nordeste 0 -- -- 66
2017-08-24 03:00:00 16.1 11 Norte 14 Norte 0 -- -- 65
2017-08-24 02:00:00 17.6 10 Noroeste 15 Noroeste 0 -- -- 59
2017-08-24 01:00:00 19.1 10 Norte 22 Norte 0 -- -- 51
2017-08-24 00:00:00 20.3 13 Norte 24 Norte 0 -- -- 45